Flight Track Log - Related Links

Times and Time Zones

All times are in EDT time to prevent confusion due to time zone crossing. See the SWA3675 flight status page for this flight to view local times or setup timezone preferences in your user account.

Time Position Orientation Groundspeed Altitude Reporting Facility
EDT Latitude Longitude Course Direction KTS MPH feet Rate Location/Type
Fri 07:57:20 PM 39.0500 -76.5833 159° South 248 285 7,100  Level Potomac TRACON
Fri 07:58:20 PM 38.9833 -76.5333 150° Southeast 281 323 10,800 3,350 Climbing Potomac TRACON
Fri 07:59:20 PM 38.9000 -76.5167 171° South 333 383 13,800 1,600 Climbing Potomac TRACON
Fri 08:00:20 PM 38.8000 -76.5667 201° Southwest 394 453 14,000 70 Climbing Potomac TRACON
Fri 08:01:00 PM 38.7044 -76.7046 184° South  Level FlightAware Approximate
Fri 08:02:11 PM 38.6292 -76.6839 208° Southwest 423 487 14,000  Level Washington Center
Fri 08:03:11 PM 38.5264 -76.7250 197° South 407 468 14,000  Level Washington Center
Fri 08:04:12 PM 38.4122 -76.6886 166° South 372 428 14,000  Level Washington Center
Fri 08:05:13 PM 38.3208 -76.6531 163° South 372 428 14,000  Level Washington Center
Fri 08:06:13 PM 38.2106 -76.5986 159° South 377 434 14,000  Level Washington Center
Fri 08:07:11 PM 38.1108 -76.5550 161° South 382 440 14,000  Level Washington Center
Fri 08:08:11 PM 38.0092 -76.5064 159° South 382 440 14,000  Level Washington Center
Fri 08:09:12 PM 37.9053 -76.4603 161° South 387 445 14,000  Level Washington Center
Fri 08:09:30 PM 37.8719 -76.4519 169° South 393 452 14,000  Level Washington Center
Fri 08:10:13 PM 37.8011 -76.4169 159° South 387 445 14,000  Level Washington Center
Fri 08:10:49 PM 37.7367 -76.3900 162° South 396 456 14,000 -508 Level Washington Center
Fri 08:11:12 PM 37.6994 -76.3686 156° South 387 445 13,500 -2,444 Descending Washington Center
Fri 08:11:43 PM 37.6389 -76.3603 174° South 388 447 11,800 492 Descending Washington Center
Fri 08:12:13 PM 37.5931 -76.3492 169° South 387 445 14,000 -1,600 Climbing Washington Center
Fri 08:12:43 PM 37.5369 -76.3436 176° South 371 427 10,200 -4,000 Descending Washington Center
Fri 08:13:13 PM 37.4972 -76.3300 165° South 373 429 10,000 -190 Descending Washington Center
Fri 08:13:46 PM 37.4514 -76.3269 177° South 298 343 10,000  Level Washington Center
Fri 08:14:11 PM 37.4139 -76.3136 164° South 339 390 10,000  Level Washington Center
Fri 08:14:51 PM 37.3556 -76.3025 171° South 319 367 10,000  Level Washington Center
Fri 08:15:12 PM 37.3244 -76.2944 168° South 328 377 10,000 -590 Level Washington Center
Fri 08:15:52 PM 37.2722 -76.2861 173° South 290 334 9,400 -885 Descending Washington Center
Fri 08:16:13 PM 37.2472 -76.2806 170° South 309 356 9,100 -1,300 Descending Washington Center
Fri 08:16:52 PM 37.1994 -76.2725 172° South 273 314 8,100 -1,474 Descending Washington Center
Fri 08:17:10 PM 37.1703 -76.2644 168° South 294 338 7,700 -1,377 Descending Washington Center
Fri 08:17:53 PM 37.1181 -76.2561 173° South 267 307 6,700 -1,475 Descending Washington Center
Fri 08:18:11 PM 37.0992 -76.2508 167° South 276 318 6,200 -1,600 Descending Washington Center
Fri 08:18:53 PM 37.0472 -76.2528 182° South 274 315 5,100 -1,100 Descending Washington Center
Fri 08:19:11 PM 37.0261 -76.2578 191° South 276 318 5,100 -689 Level Washington Center
Fri 08:19:54 PM 36.9822 -76.2886 209° Southwest 241 277 4,400 -977 Descending Washington Center

Login

Don't have an account? Register now (free) for customized features, flight alerts, and more!